Time,TemperatureF,DewpointF,PressureIn,WindDirection,WindDirectionDegrees,WindSpeedMPH,WindSpeedGustMPH,Humidity,HourlyPrecipIn,Conditions,Clouds,dailyrainin,SoftwareType,DateUTC
2013-05-17 00:01:00,67.7,40.0,30.00,East,96,0.0,3.0,37,0.00,,,0.00,weatherlink.com 1.10,2013-05-17 04:01:00,
2013-05-17 00:15:00,67.1,41.0,30.00,WSW,246,0.0,4.0,39,0.00,,,0.00,weatherlink.com 1.10,2013-05-17 04:15:00,
2013-05-17 00:30:00,66.5,41.0,30.00,North,360,0.0,5.0,40,0.00,,,0.00,weatherlink.com 1.10,2013-05-17 04:30:00,
2013-05-17 00:45:00,65.7,41.0,30.00,WNW,301,0.0,5.0,40,0.00,,,0.00,weatherlink.com 1.10,2013-05-17 04:45:00,
2013-05-17 01:00:00,65.1,41.0,30.01,SSE,160,0.0,5.0,41,0.00,,,0.00,weatherlink.com 1.10,2013-05-17 05:00:00,
2013-05-17 01:15:00,64.2,42.0,30.01,NW,322,0.0,5.0,44,0.00,,,0.00,weatherlink.com 1.10,2013-05-17 05:15:00,
2013-05-17 01:30:00,62.9,43.0,30.01,NE,47,4.0,6.0,49,0.00,,,0.00,weatherlink.com 1.10,2013-05-17 05:30:00,
2013-05-17 01:45:00,61.4,44.0,30.02,SW,222,1.0,5.0,54,0.00,,,0.00,weatherlink.com 1.10,2013-05-17 05:45:00,
2013-05-17 02:00:00,60.4,44.0,30.01,SE,132,0.0,5.0,56,0.00,,,0.00,weatherlink.com 1.10,2013-05-17 06:00:00,
2013-05-17 02:15:00,59.5,44.0,30.01,SE,127,9.0,9.0,57,0.00,,,0.00,weatherlink.com 1.10,2013-05-17 06:15:00,
2013-05-17 02:30:00,58.9,44.0,30.01,East,101,2.0,5.0,58,0.00,,,0.00,weatherlink.com 1.10,2013-05-17 06:30:00,
2013-05-17 02:45:00,58.5,44.0,30.01,SE,133,0.0,6.0,59,0.00,,,0.00,weatherlink.com 1.10,2013-05-17 06:45:00,
2013-05-17 03:00:00,58.1,44.0,30.01,ENE,66,4.0,5.0,59,0.00,,,0.00,weatherlink.com 1.10,2013-05-17 07:00:00,
2013-05-17 03:15:00,57.7,43.0,30.00,WSW,250,1.0,6.0,59,0.00,,,0.00,weatherlink.com 1.10,2013-05-17 07:15:00,
2013-05-17 03:30:00,57.5,44.0,30.01,ESE,105,0.0,2.0,60,0.00,,,0.00,weatherlink.com 1.10,2013-05-17 07:30:00,
2013-05-17 03:45:00,57.3,42.0,30.01,SE,127,3.0,5.0,58,0.00,,,0.00,weatherlink.com 1.10,2013-05-17 07:45:00,
2013-05-17 04:01:00,56.9,42.0,30.02,East,87,3.0,6.0,58,0.00,,,0.00,weatherlink.com 1.10,2013-05-17 08:01:00,
2013-05-17 04:16:00,56.4,41.0,30.02,East,86,1.0,6.0,57,0.00,,,0.00,weatherlink.com 1.10,2013-05-17 08:16:00,
2013-05-17 04:31:00,56.1,41.0,30.03,ESE,110,0.0,3.0,57,0.00,,,0.00,weatherlink.com 1.10,2013-05-17 08:31:00,
2013-05-17 04:46:00,55.8,41.0,30.02,SSE,167,0.0,7.0,57,0.00,,,0.00,weatherlink.com 1.10,2013-05-17 08:46:00,
2013-05-17 05:01:00,55.7,40.0,30.03,ESE,108,2.0,6.0,57,0.00,,,0.00,weatherlink.com 1.10,2013-05-17 09:01:00,
2013-05-17 05:16:00,55.4,41.0,30.02,NE,53,1.0,6.0,58,0.00,,,0.00,weatherlink.com 1.10,2013-05-17 09:16:00,
2013-05-17 05:31:00,55.0,40.0,30.03,SE,134,0.0,5.0,58,0.00,,,0.00,weatherlink.com 1.10,2013-05-17 09:31:00,
2013-05-17 05:46:00,54.7,40.0,30.04,East,94,0.0,8.0,59,0.00,,,0.00,weatherlink.com 1.10,2013-05-17 09:46:00,
2013-05-17 06:01:00,54.3,41.0,30.05,East,92,1.0,2.0,61,0.00,,,0.00,weatherlink.com 1.10,2013-05-17 10:01:00,
2013-05-17 06:16:00,53.7,41.0,30.05,WNW,291,0.0,4.0,62,0.00,,,0.00,weatherlink.com 1.10,2013-05-17 10:16:00,
2013-05-17 06:31:00,53.4,41.0,30.05,NE,55,1.0,3.0,63,0.00,,,0.00,weatherlink.com 1.10,2013-05-17 10:31:00,
2013-05-17 06:46:00,53.2,41.0,30.05,ESE,110,1.0,3.0,64,0.00,,,0.00,weatherlink.com 1.10,2013-05-17 10:46:00,
2013-05-17 07:01:00,53.2,42.0,30.06,SE,129,0.0,3.0,65,0.00,,,0.00,weatherlink.com 1.10,2013-05-17 11:01:00,
2013-05-17 07:16:00,53.4,42.0,30.06,ESE,117,0.0,3.0,65,0.00,,,0.00,weatherlink.com 1.10,2013-05-17 11:16:00,
2013-05-17 07:31:00,53.6,42.0,30.06,ENE,77,0.0,3.0,65,0.00,,,0.00,weatherlink.com 1.10,2013-05-17 11:31:00,
2013-05-17 07:46:00,54.1,42.0,30.08,ESE,116,1.0,4.0,64,0.00,,,0.00,weatherlink.com 1.10,2013-05-17 11:46:00,
2013-05-17 08:01:00,54.6,43.0,30.09,East,95,0.0,4.0,64,0.00,,,0.00,weatherlink.com 1.10,2013-05-17 12:01:00,
2013-05-17 08:16:00,55.1,43.0,30.09,NE,44,0.0,4.0,64,0.00,,,0.00,weatherlink.com 1.10,2013-05-17 12:16:00,
2013-05-17 08:31:00,55.7,43.0,30.09,ESE,104,0.0,4.0,62,0.00,,,0.00,weatherlink.com 1.10,2013-05-17 12:31:00,
2013-05-17 08:46:00,56.3,43.0,30.09,NNE,21,0.0,6.0,62,0.00,,,0.00,weatherlink.com 1.10,2013-05-17 12:46:00,
2013-05-17 09:01:00,57.4,44.0,30.09,ENE,67,0.0,4.0,61,0.00,,,0.00,weatherlink.com 1.10,2013-05-17 13:01:00,
2013-05-17 09:16:00,59.2,44.0,30.09,SE,129,1.0,9.0,57,0.00,,,0.00,weatherlink.com 1.10,2013-05-17 13:16:00,
2013-05-17 09:31:00,61.6,44.0,30.09,East,91,1.0,5.0,52,0.00,,,0.00,weatherlink.com 1.10,2013-05-17 13:31:00,
2013-05-17 09:46:00,62.5,43.0,30.09,SE,127,1.0,5.0,50,0.00,,,0.00,weatherlink.com 1.10,2013-05-17 13:46:00,
2013-05-17 10:01:00,63.5,44.0,30.08,ENE,68,1.0,5.0,50,0.00,,,0.00,weatherlink.com 1.10,2013-05-17 14:01:00,
2013-05-17 10:16:00,64.3,45.0,30.09,ENE,60,2.0,6.0,50,0.00,,,0.00,weatherlink.com 1.10,2013-05-17 14:16:00,
2013-05-17 10:31:00,64.8,44.0,30.09,ENE,75,0.0,8.0,48,0.00,,,0.00,weatherlink.com 1.10,2013-05-17 14:31:00,
2013-05-17 10:46:00,64.7,45.0,30.09,East,93,0.0,5.0,50,0.00,,,0.00,weatherlink.com 1.10,2013-05-17 14:46:00,
2013-05-17 11:01:00,64.0,45.0,30.10,North,359,4.0,4.0,50,0.00,,,0.00,weatherlink.com 1.10,2013-05-17 15:01:00,
2013-05-17 11:16:00,63.9,45.0,30.10,ESE,122,3.0,6.0,51,0.00,,,0.00,weatherlink.com 1.10,2013-05-17 15:16:00,
2013-05-17 11:31:00,64.1,45.0,30.10,NE,44,1.0,5.0,51,0.00,,,0.00,weatherlink.com 1.10,2013-05-17 15:31:00,
2013-05-17 11:46:00,64.5,46.0,30.10,NE,53,2.0,3.0,52,0.00,,,0.00,weatherlink.com 1.10,2013-05-17 15:46:00,
2013-05-17 12:01:00,64.2,46.0,30.10,ESE,118,2.0,6.0,52,0.00,,,0.00,weatherlink.com 1.10,2013-05-17 16:01:00,
2013-05-17 12:16:00,64.1,46.0,30.10,ESE,104,5.0,8.0,52,0.00,,,0.00,weatherlink.com 1.10,2013-05-17 16:16:00,
2013-05-17 12:31:00,64.4,46.0,30.10,NE,46,1.0,5.0,52,0.00,,,0.00,weatherlink.com 1.10,2013-05-17 16:31:00,
2013-05-17 12:46:00,64.6,48.0,30.10,ENE,70,0.0,5.0,55,0.00,,,0.00,weatherlink.com 1.10,2013-05-17 16:46:00,
2013-05-17 13:01:00,64.4,48.0,30.10,NNW,328,0.0,4.0,56,0.00,,,0.00,weatherlink.com 1.10,2013-05-17 17:01:00,
2013-05-17 13:16:00,64.5,47.0,30.09,NNW,342,3.0,6.0,54,0.00,,,0.00,weatherlink.com 1.10,2013-05-17 17:16:00,
2013-05-17 13:32:00,64.7,47.0,30.09,WNW,302,1.0,6.0,54,0.00,,,0.00,weatherlink.com 1.10,2013-05-17 17:32:00,
2013-05-17 13:47:00,65.3,48.0,30.09,East,101,5.0,10.0,54,0.00,,,0.00,weatherlink.com 1.10,2013-05-17 17:47:00,
2013-05-17 14:02:00,65.3,48.0,30.09,ENE,62,2.0,7.0,53,0.00,,,0.00,weatherlink.com 1.10,2013-05-17 18:02:00,
2013-05-17 14:17:00,65.2,48.0,30.09,NNW,331,3.0,7.0,54,0.00,,,0.00,weatherlink.com 1.10,2013-05-17 18:17:00,
2013-05-17 14:32:00,65.8,49.0,30.09,ESE,115,4.0,10.0,54,0.00,,,0.00,weatherlink.com 1.10,2013-05-17 18:32:00,
2013-05-17 14:47:00,66.0,48.0,30.08,NNW,328,5.0,7.0,53,0.00,,,0.00,weatherlink.com 1.10,2013-05-17 18:47:00,
2013-05-17 15:02:00,66.3,48.0,30.08,ENE,64,1.0,8.0,53,0.00,,,0.00,weatherlink.com 1.10,2013-05-17 19:02:00,
2013-05-17 15:17:00,67.1,48.0,30.07,North,4,1.0,8.0,51,0.00,,,0.00,weatherlink.com 1.10,2013-05-17 19:17:00,
2013-05-17 15:32:00,68.3,48.0,30.07,SSE,160,1.0,6.0,49,0.00,,,0.00,weatherlink.com 1.10,2013-05-17 19:32:00,
2013-05-17 15:47:00,68.8,48.0,30.07,West,260,1.0,6.0,48,0.00,,,0.00,weatherlink.com 1.10,2013-05-17 19:47:00,
2013-05-17 16:02:00,69.6,48.0,30.07,East,85,2.0,9.0,46,0.00,,,0.00,weatherlink.com 1.10,2013-05-17 20:02:00,
2013-05-17 16:17:00,69.7,48.0,30.06,WSW,255,2.0,7.0,46,0.00,,,0.00,weatherlink.com 1.10,2013-05-17 20:17:00,
2013-05-17 16:32:00,69.7,48.0,30.06,NNW,340,3.0,9.0,46,0.00,,,0.00,weatherlink.com 1.10,2013-05-17 20:32:00,
2013-05-17 16:47:00,70.1,48.0,30.06,East,87,1.0,8.0,45,0.00,,,0.00,weatherlink.com 1.10,2013-05-17 20:47:00,
2013-05-17 17:02:00,69.9,48.0,30.06,NNW,331,3.0,7.0,45,0.00,,,0.00,weatherlink.com 1.10,2013-05-17 21:02:00,
2013-05-17 17:17:00,69.8,46.0,30.06,SE,130,1.0,5.0,43,0.00,,,0.00,weatherlink.com 1.10,2013-05-17 21:17:00,
2013-05-17 17:32:00,70.0,47.0,30.06,North,3,3.0,5.0,44,0.00,,,0.00,weatherlink.com 1.10,2013-05-17 21:32:00,
2013-05-17 17:47:00,69.0,47.0,30.06,East,100,3.0,9.0,46,0.00,,,0.00,weatherlink.com 1.10,2013-05-17 21:47:00,
2013-05-17 18:02:00,67.9,47.0,30.07,NNE,13,1.0,7.0,47,0.00,,,0.00,weatherlink.com 1.10,2013-05-17 22:02:00,
2013-05-17 18:17:00,67.2,47.0,30.07,North,357,0.0,5.0,49,0.00,,,0.00,weatherlink.com 1.10,2013-05-17 22:17:00,
2013-05-17 18:32:00,66.4,46.0,30.07,NNW,337,1.0,4.0,49,0.00,,,0.00,weatherlink.com 1.10,2013-05-17 22:32:00,
2013-05-17 18:47:00,65.9,45.0,30.08,NE,50,2.0,8.0,48,0.00,,,0.00,weatherlink.com 1.10,2013-05-17 22:47:00,
2013-05-17 19:02:00,65.5,45.0,30.08,East,97,2.0,6.0,48,0.00,,,0.00,weatherlink.com 1.10,2013-05-17 23:02:00,
2013-05-17 19:17:00,65.2,45.0,30.08,ENE,67,2.0,3.0,49,0.00,,,0.00,weatherlink.com 1.10,2013-05-17 23:17:00,
2013-05-17 19:32:00,64.7,46.0,30.07,NNE,18,1.0,6.0,51,0.00,,,0.00,weatherlink.com 1.10,2013-05-17 23:32:00,
2013-05-17 19:47:00,64.3,46.0,30.07,NNW,347,1.0,4.0,52,0.00,,,0.00,weatherlink.com 1.10,2013-05-17 23:47:00,
2013-05-17 20:02:00,64.0,46.0,30.08,East,91,3.0,5.0,53,0.00,,,0.00,weatherlink.com 1.10,2013-05-18 00:02:00,
2013-05-17 20:17:00,63.7,47.0,30.08,ENE,62,2.0,6.0,54,0.00,,,0.00,weatherlink.com 1.10,2013-05-18 00:17:00,
2013-05-17 20:32:00,63.4,47.0,30.08,SSE,156,0.0,7.0,55,0.00,,,0.00,weatherlink.com 1.10,2013-05-18 00:32:00,
2013-05-17 20:47:00,63.2,47.0,30.07,NNE,15,2.0,6.0,56,0.00,,,0.00,weatherlink.com 1.10,2013-05-18 00:47:00,
2013-05-17 21:02:00,62.9,47.0,30.08,SE,132,1.0,4.0,57,0.00,,,0.00,weatherlink.com 1.10,2013-05-18 01:02:00,
2013-05-17 21:17:00,62.6,47.0,30.08,ENE,65,1.0,6.0,58,0.00,,,0.00,weatherlink.com 1.10,2013-05-18 01:17:00,
2013-05-17 21:32:00,62.4,48.0,30.08,ESE,118,1.0,5.0,59,0.00,,,0.00,weatherlink.com 1.10,2013-05-18 01:32:00,
2013-05-17 21:47:00,62.2,47.0,30.07,ESE,105,0.0,4.0,59,0.00,,,0.00,weatherlink.com 1.10,2013-05-18 01:47:00,
2013-05-17 22:02:00,62.1,47.0,30.08,ENE,77,0.0,6.0,59,0.00,,,0.00,weatherlink.com 1.10,2013-05-18 02:02:00,
2013-05-17 22:17:00,61.9,47.0,30.09,NNE,33,0.0,5.0,59,0.00,,,0.00,weatherlink.com 1.10,2013-05-18 02:17:00,
2013-05-17 22:32:00,61.8,47.0,30.09,ESE,116,0.0,4.0,59,0.00,,,0.00,weatherlink.com 1.10,2013-05-18 02:32:00,
2013-05-17 22:47:00,61.7,47.0,30.09,NE,45,1.0,6.0,59,0.00,,,0.00,weatherlink.com 1.10,2013-05-18 02:47:00,
2013-05-17 23:02:00,61.6,47.0,30.09,East,79,2.0,5.0,60,0.00,,,0.00,weatherlink.com 1.10,2013-05-18 03:02:00,
2013-05-17 23:17:00,61.4,47.0,30.10,SE,141,3.0,4.0,60,0.00,,,0.00,weatherlink.com 1.10,2013-05-18 03:17:00,
2013-05-17 23:32:00,61.2,47.0,30.10,ESE,113,0.0,2.0,61,0.00,,,0.00,weatherlink.com 1.10,2013-05-18 03:32:00,
2013-05-17 23:47:00,60.9,48.0,30.10,ESE,107,0.0,2.0,62,0.00,,,0.00,weatherlink.com 1.10,2013-05-18 03:47:00,